In Rescue
 
Open Full Screen Window  High Contrast Mode
Wind Gusting 00 knots
03
July 25, 2021 9:35 AM EDT
Weather Information
Wind Direction
  330 °
Wind Speed
  03 kt (3 mph)
Wind Gust
  00 kt (0 mph)
Altimeter
29.96 in
Visibility
10 SM
Temperature
22° C
72° F
Dewpoint
22° C
72° F
Humidity
100%
Sky Condition
Overcast @ 500 ft
IFR

METAR KAXV 251335Z AUTO 33003KT 10SM OVC005 22/22 A2996 RMK AO2

FAA Disclaimer: The data displayed is for advisory purposes only and is not to be used for flight planning or operations.